sensor_id;sensor_type;location;lat;lon;timestamp;temperature;humidity
43346;DHT22;28937;51.160;4.146;2022-08-21T00:00:34;20.90;90.00
43346;DHT22;28937;51.160;4.146;2022-08-21T00:03:05;20.90;90.20
43346;DHT22;28937;51.160;4.146;2022-08-21T00:05:35;20.90;90.20
43346;DHT22;28937;51.160;4.146;2022-08-21T00:08:01;20.80;90.30
43346;DHT22;28937;51.160;4.146;2022-08-21T00:10:27;20.70;90.40
43346;DHT22;28937;51.160;4.146;2022-08-21T00:12:53;20.70;90.30
43346;DHT22;28937;51.160;4.146;2022-08-21T00:15:23;20.70;90.30
43346;DHT22;28937;51.160;4.146;2022-08-21T00:17:51;20.70;90.30
43346;DHT22;28937;51.160;4.146;2022-08-21T00:20:17;20.70;90.30
43346;DHT22;28937;51.160;4.146;2022-08-21T00:22:43;20.60;90.40
43346;DHT22;28937;51.160;4.146;2022-08-21T00:25:09;20.60;90.50
43346;DHT22;28937;51.160;4.146;2022-08-21T00:27:35;20.60;90.60
43346;DHT22;28937;51.160;4.146;2022-08-21T00:30:01;20.50;90.90
43346;DHT22;28937;51.160;4.146;2022-08-21T00:32:27;20.50;90.70
43346;DHT22;28937;51.160;4.146;2022-08-21T00:34:53;20.50;90.70
43346;DHT22;28937;51.160;4.146;2022-08-21T00:37:20;20.50;90.80
43346;DHT22;28937;51.160;4.146;2022-08-21T00:39:46;20.50;90.80
43346;DHT22;28937;51.160;4.146;2022-08-21T00:42:13;20.40;90.80
43346;DHT22;28937;51.160;4.146;2022-08-21T00:44:46;20.40;90.90
43346;DHT22;28937;51.160;4.146;2022-08-21T00:47:13;20.40;91.00
43346;DHT22;28937;51.160;4.146;2022-08-21T00:49:39;20.30;91.00
43346;DHT22;28937;51.160;4.146;2022-08-21T00:52:08;20.40;91.00
43346;DHT22;28937;51.160;4.146;2022-08-21T00:54:34;20.30;91.10
43346;DHT22;28937;51.160;4.146;2022-08-21T00:57:07;20.30;91.20
43346;DHT22;28937;51.160;4.146;2022-08-21T00:59:36;20.30;91.50
43346;DHT22;28937;51.160;4.146;2022-08-21T01:02:05;20.20;91.30
43346;DHT22;28937;51.160;4.146;2022-08-21T01:04:31;20.20;91.30
43346;DHT22;28937;51.160;4.146;2022-08-21T01:06:56;20.20;91.30
43346;DHT22;28937;51.160;4.146;2022-08-21T01:09:22;20.20;91.40
43346;DHT22;28937;51.160;4.146;2022-08-21T01:11:48;20.20;91.50
43346;DHT22;28937;51.160;4.146;2022-08-21T01:14:14;20.10;91.50
43346;DHT22;28937;51.160;4.146;2022-08-21T01:16:44;20.10;91.50
43346;DHT22;28937;51.160;4.146;2022-08-21T01:19:10;20.10;91.50
43346;DHT22;28937;51.160;4.146;2022-08-21T01:21:36;20.10;91.60
43346;DHT22;28937;51.160;4.146;2022-08-21T01:24:02;20.10;91.70
43346;DHT22;28937;51.160;4.146;2022-08-21T01:26:31;20.10;91.60
43346;DHT22;28937;51.160;4.146;2022-08-21T01:29:03;20.00;91.70
43346;DHT22;28937;51.160;4.146;2022-08-21T01:31:31;20.00;91.80
43346;DHT22;28937;51.160;4.146;2022-08-21T01:33:58;20.00;91.70
43346;DHT22;28937;51.160;4.146;2022-08-21T01:36:25;20.00;91.80
43346;DHT22;28937;51.160;4.146;2022-08-21T01:38:51;20.00;91.80
43346;DHT22;28937;51.160;4.146;2022-08-21T01:41:16;19.90;91.80
43346;DHT22;28937;51.160;4.146;2022-08-21T01:43:43;19.90;91.80
43346;DHT22;28937;51.160;4.146;2022-08-21T01:46:09;19.90;91.80
43346;DHT22;28937;51.160;4.146;2022-08-21T01:48:35;19.90;91.70
43346;DHT22;28937;51.160;4.146;2022-08-21T01:51:01;19.90;91.70
43346;DHT22;28937;51.160;4.146;2022-08-21T01:53:27;19.80;91.80
43346;DHT22;28937;51.160;4.146;2022-08-21T01:55:52;19.80;91.90
43346;DHT22;28937;51.160;4.146;2022-08-21T01:58:18;19.80;92.00
43346;DHT22;28937;51.160;4.146;2022-08-21T02:00:44;19.70;92.10
43346;DHT22;28937;51.160;4.146;2022-08-21T02:03:09;19.70;92.00
43346;DHT22;28937;51.160;4.146;2022-08-21T02:05:35;19.70;92.00
43346;DHT22;28937;51.160;4.146;2022-08-21T02:08:01;19.70;92.10
43346;DHT22;28937;51.160;4.146;2022-08-21T02:10:31;19.70;92.20
43346;DHT22;28937;51.160;4.146;2022-08-21T02:12:58;19.60;92.10
43346;DHT22;28937;51.160;4.146;2022-08-21T02:15:25;19.70;92.20
43346;DHT22;28937;51.160;4.146;2022-08-21T02:17:56;19.60;92.20
43346;DHT22;28937;51.160;4.146;2022-08-21T02:20:32;19.60;92.20
43346;DHT22;28937;51.160;4.146;2022-08-21T02:22:58;19.60;92.40
43346;DHT22;28937;51.160;4.146;2022-08-21T02:25:25;19.60;92.20
43346;DHT22;28937;51.160;4.146;2022-08-21T02:27:51;19.50;92.20
43346;DHT22;28937;51.160;4.146;2022-08-21T02:30:24;19.50;92.40
43346;DHT22;28937;51.160;4.146;2022-08-21T02:32:49;19.50;92.50
43346;DHT22;28937;51.160;4.146;2022-08-21T02:35:15;19.50;92.40
43346;DHT22;28937;51.160;4.146;2022-08-21T02:37:52;19.50;92.50
43346;DHT22;28937;51.160;4.146;2022-08-21T02:40:19;19.50;92.50
43346;DHT22;28937;51.160;4.146;2022-08-21T02:42:45;19.40;92.50
43346;DHT22;28937;51.160;4.146;2022-08-21T02:45:12;19.40;92.60
43346;DHT22;28937;51.160;4.146;2022-08-21T02:47:38;19.40;92.60
43346;DHT22;28937;51.160;4.146;2022-08-21T02:50:05;19.40;92.60
43346;DHT22;28937;51.160;4.146;2022-08-21T02:52:30;19.40;92.70
43346;DHT22;28937;51.160;4.146;2022-08-21T02:54:56;19.40;92.70
43346;DHT22;28937;51.160;4.146;2022-08-21T02:57:22;19.30;92.90
43346;DHT22;28937;51.160;4.146;2022-08-21T02:59:47;19.40;92.90
43346;DHT22;28937;51.160;4.146;2022-08-21T03:02:13;19.40;92.90
43346;DHT22;28937;51.160;4.146;2022-08-21T03:04:38;19.30;92.80
43346;DHT22;28937;51.160;4.146;2022-08-21T03:07:04;19.30;92.90
43346;DHT22;28937;51.160;4.146;2022-08-21T03:09:30;19.30;92.90
43346;DHT22;28937;51.160;4.146;2022-08-21T03:11:55;19.20;93.00
43346;DHT22;28937;51.160;4.146;2022-08-21T03:14:21;19.30;93.00
43346;DHT22;28937;51.160;4.146;2022-08-21T03:16:46;19.30;93.20
43346;DHT22;28937;51.160;4.146;2022-08-21T03:19:12;19.20;93.20
43346;DHT22;28937;51.160;4.146;2022-08-21T03:21:38;19.20;93.20
43346;DHT22;28937;51.160;4.146;2022-08-21T03:24:04;19.20;93.30
43346;DHT22;28937;51.160;4.146;2022-08-21T03:26:30;19.20;93.30
43346;DHT22;28937;51.160;4.146;2022-08-21T03:28:55;19.20;93.40
43346;DHT22;28937;51.160;4.146;2022-08-21T03:31:23;19.20;93.50
43346;DHT22;28937;51.160;4.146;2022-08-21T03:33:49;19.20;93.50
43346;DHT22;28937;51.160;4.146;2022-08-21T03:36:15;19.10;93.50
43346;DHT22;28937;51.160;4.146;2022-08-21T03:38:41;19.10;93.50
43346;DHT22;28937;51.160;4.146;2022-08-21T03:41:07;19.10;93.60
43346;DHT22;28937;51.160;4.146;2022-08-21T03:43:33;19.10;93.60
43346;DHT22;28937;51.160;4.146;2022-08-21T03:46:00;19.10;93.60
43346;DHT22;28937;51.160;4.146;2022-08-21T03:48:26;19.00;93.60
43346;DHT22;28937;51.160;4.146;2022-08-21T03:50:52;19.00;93.60
43346;DHT22;28937;51.160;4.146;2022-08-21T03:53:18;19.00;93.60
43346;DHT22;28937;51.160;4.146;2022-08-21T03:55:45;19.00;93.60
43346;DHT22;28937;51.160;4.146;2022-08-21T03:58:11;19.00;93.50
43346;DHT22;28937;51.160;4.146;2022-08-21T04:00:37;19.00;93.70
43346;DHT22;28937;51.160;4.146;2022-08-21T04:03:03;19.00;93.60
43346;DHT22;28937;51.160;4.146;2022-08-21T04:05:29;18.90;93.80
43346;DHT22;28937;51.160;4.146;2022-08-21T04:08:00;18.90;93.70
43346;DHT22;28937;51.160;4.146;2022-08-21T04:10:27;18.90;93.80
43346;DHT22;28937;51.160;4.146;2022-08-21T04:12:53;18.90;94.00
43346;DHT22;28937;51.160;4.146;2022-08-21T04:15:20;18.90;94.00
43346;DHT22;28937;51.160;4.146;2022-08-21T04:17:46;18.90;93.90
43346;DHT22;28937;51.160;4.146;2022-08-21T04:20:11;18.90;94.00
43346;DHT22;28937;51.160;4.146;2022-08-21T04:22:38;18.90;93.90
43346;DHT22;28937;51.160;4.146;2022-08-21T04:25:04;18.90;94.10
43346;DHT22;28937;51.160;4.146;2022-08-21T04:27:30;18.80;94.10
43346;DHT22;28937;51.160;4.146;2022-08-21T04:29:55;18.80;94.20
43346;DHT22;28937;51.160;4.146;2022-08-21T04:32:25;18.80;94.30
43346;DHT22;28937;51.160;4.146;2022-08-21T04:34:58;18.80;94.20
43346;DHT22;28937;51.160;4.146;2022-08-21T04:37:24;18.80;94.30
43346;DHT22;28937;51.160;4.146;2022-08-21T04:39:49;18.80;94.40
43346;DHT22;28937;51.160;4.146;2022-08-21T04:42:15;18.80;94.30
43346;DHT22;28937;51.160;4.146;2022-08-21T04:44:41;18.80;94.40
43346;DHT22;28937;51.160;4.146;2022-08-21T04:47:06;18.80;94.50
43346;DHT22;28937;51.160;4.146;2022-08-21T04:49:32;18.80;94.50
43346;DHT22;28937;51.160;4.146;2022-08-21T04:51:58;18.70;94.60
43346;DHT22;28937;51.160;4.146;2022-08-21T04:54:25;18.70;94.70
43346;DHT22;28937;51.160;4.146;2022-08-21T04:56:56;18.70;94.80
43346;DHT22;28937;51.160;4.146;2022-08-21T04:59:32;18.80;94.70
43346;DHT22;28937;51.160;4.146;2022-08-21T05:02:00;18.80;94.70
43346;DHT22;28937;51.160;4.146;2022-08-21T05:04:29;18.80;94.70
43346;DHT22;28937;51.160;4.146;2022-08-21T05:06:58;18.80;95.10
43346;DHT22;28937;51.160;4.146;2022-08-21T05:09:25;18.80;94.90
43346;DHT22;28937;51.160;4.146;2022-08-21T05:11:52;18.80;95.00
43346;DHT22;28937;51.160;4.146;2022-08-21T05:14:18;18.80;95.00
43346;DHT22;28937;51.160;4.146;2022-08-21T05:16:45;18.80;95.00
43346;DHT22;28937;51.160;4.146;2022-08-21T05:19:11;18.80;94.90
43346;DHT22;28937;51.160;4.146;2022-08-21T05:21:40;18.80;94.90
43346;DHT22;28937;51.160;4.146;2022-08-21T05:24:06;18.80;95.10
43346;DHT22;28937;51.160;4.146;2022-08-21T05:26:32;18.80;95.10
43346;DHT22;28937;51.160;4.146;2022-08-21T05:28:57;18.80;95.10
43346;DHT22;28937;51.160;4.146;2022-08-21T05:31:23;18.80;95.00
43346;DHT22;28937;51.160;4.146;2022-08-21T05:33:49;18.80;95.10
43346;DHT22;28937;51.160;4.146;2022-08-21T05:36:14;18.80;95.10
43346;DHT22;28937;51.160;4.146;2022-08-21T05:38:40;18.90;95.10
43346;DHT22;28937;51.160;4.146;2022-08-21T05:41:05;18.90;95.10
43346;DHT22;28937;51.160;4.146;2022-08-21T05:43:32;18.90;95.20
43346;DHT22;28937;51.160;4.146;2022-08-21T05:46:04;18.90;95.20
43346;DHT22;28937;51.160;4.146;2022-08-21T05:48:30;19.00;95.10
43346;DHT22;28937;51.160;4.146;2022-08-21T05:50:56;18.90;95.10
43346;DHT22;28937;51.160;4.146;2022-08-21T05:53:23;18.90;95.20
43346;DHT22;28937;51.160;4.146;2022-08-21T05:55:50;19.00;95.10
43346;DHT22;28937;51.160;4.146;2022-08-21T05:58:19;19.00;95.20
43346;DHT22;28937;51.160;4.146;2022-08-21T06:00:46;19.10;95.30
43346;DHT22;28937;51.160;4.146;2022-08-21T06:03:18;19.10;95.20
43346;DHT22;28937;51.160;4.146;2022-08-21T06:05:45;19.20;95.20
43346;DHT22;28937;51.160;4.146;2022-08-21T06:08:11;19.30;95.10
43346;DHT22;28937;51.160;4.146;2022-08-21T06:10:37;19.40;94.80
43346;DHT22;28937;51.160;4.146;2022-08-21T06:13:03;19.70;94.60
43346;DHT22;28937;51.160;4.146;2022-08-21T06:15:28;19.90;94.40
43346;DHT22;28937;51.160;4.146;2022-08-21T06:17:54;20.00;94.00
43346;DHT22;28937;51.160;4.146;2022-08-21T06:20:21;20.10;93.80
43346;DHT22;28937;51.160;4.146;2022-08-21T06:22:46;20.20;93.60
43346;DHT22;28937;51.160;4.146;2022-08-21T06:25:12;20.20;93.50
43346;DHT22;28937;51.160;4.146;2022-08-21T06:27:37;20.30;93.50
43346;DHT22;28937;51.160;4.146;2022-08-21T06:30:05;20.30;93.60
43346;DHT22;28937;51.160;4.146;2022-08-21T06:32:31;20.40;93.30
43346;DHT22;28937;51.160;4.146;2022-08-21T06:34:56;20.40;93.30
43346;DHT22;28937;51.160;4.146;2022-08-21T06:37:22;20.40;93.50
43346;DHT22;28937;51.160;4.146;2022-08-21T06:39:48;20.40;93.60
43346;DHT22;28937;51.160;4.146;2022-08-21T06:42:15;20.40;93.40
43346;DHT22;28937;51.160;4.146;2022-08-21T06:44:42;20.50;93.30
43346;DHT22;28937;51.160;4.146;2022-08-21T06:47:08;20.50;93.20
43346;DHT22;28937;51.160;4.146;2022-08-21T06:49:33;20.60;93.20
43346;DHT22;28937;51.160;4.146;2022-08-21T06:52:00;20.60;93.20
43346;DHT22;28937;51.160;4.146;2022-08-21T06:54:25;20.60;93.10
43346;DHT22;28937;51.160;4.146;2022-08-21T06:56:51;20.70;93.20
43346;DHT22;28937;51.160;4.146;2022-08-21T06:59:16;20.70;93.30
43346;DHT22;28937;51.160;4.146;2022-08-21T07:01:42;20.80;93.30
43346;DHT22;28937;51.160;4.146;2022-08-21T07:04:08;20.80;93.30
43346;DHT22;28937;51.160;4.146;2022-08-21T07:06:33;20.80;93.20
43346;DHT22;28937;51.160;4.146;2022-08-21T07:08:59;20.80;93.30
43346;DHT22;28937;51.160;4.146;2022-08-21T07:11:26;20.90;93.30
43346;DHT22;28937;51.160;4.146;2022-08-21T07:13:52;20.90;93.20
43346;DHT22;28937;51.160;4.146;2022-08-21T07:16:20;20.90;93.20
43346;DHT22;28937;51.160;4.146;2022-08-21T07:18:46;21.00;93.00
43346;DHT22;28937;51.160;4.146;2022-08-21T07:21:12;21.00;93.00
43346;DHT22;28937;51.160;4.146;2022-08-21T07:23:41;21.00;93.20
43346;DHT22;28937;51.160;4.146;2022-08-21T07:26:07;21.10;93.00
43346;DHT22;28937;51.160;4.146;2022-08-21T07:28:33;21.10;93.00
43346;DHT22;28937;51.160;4.146;2022-08-21T07:31:00;21.20;93.10
43346;DHT22;28937;51.160;4.146;2022-08-21T07:33:27;21.20;93.00
43346;DHT22;28937;51.160;4.146;2022-08-21T07:35:53;21.20;93.10
43346;DHT22;28937;51.160;4.146;2022-08-21T07:38:20;21.20;93.20
43346;DHT22;28937;51.160;4.146;2022-08-21T07:40:47;21.30;93.10
43346;DHT22;28937;51.160;4.146;2022-08-21T07:43:13;21.30;93.10
43346;DHT22;28937;51.160;4.146;2022-08-21T07:45:42;21.30;93.30
43346;DHT22;28937;51.160;4.146;2022-08-21T07:48:08;21.40;93.70
43346;DHT22;28937;51.160;4.146;2022-08-21T07:50:33;21.50;93.90
43346;DHT22;28937;51.160;4.146;2022-08-21T07:52:59;21.50;93.90
43346;DHT22;28937;51.160;4.146;2022-08-21T07:55:25;21.50;93.50
43346;DHT22;28937;51.160;4.146;2022-08-21T07:57:50;21.60;93.30
43346;DHT22;28937;51.160;4.146;2022-08-21T08:00:19;21.60;93.00
43346;DHT22;28937;51.160;4.146;2022-08-21T08:02:47;21.70;93.20
43346;DHT22;28937;51.160;4.146;2022-08-21T08:05:16;21.70;93.10
43346;DHT22;28937;51.160;4.146;2022-08-21T08:07:42;21.80;93.10
43346;DHT22;28937;51.160;4.146;2022-08-21T08:10:08;21.80;93.10
43346;DHT22;28937;51.160;4.146;2022-08-21T08:12:36;21.90;93.10
43346;DHT22;28937;51.160;4.146;2022-08-21T08:15:02;21.90;92.90
43346;DHT22;28937;51.160;4.146;2022-08-21T08:17:28;21.90;92.80
43346;DHT22;28937;51.160;4.146;2022-08-21T08:19:54;22.00;92.80
43346;DHT22;28937;51.160;4.146;2022-08-21T08:22:21;21.90;92.80
43346;DHT22;28937;51.160;4.146;2022-08-21T08:24:50;22.00;92.80
43346;DHT22;28937;51.160;4.146;2022-08-21T08:27:17;22.00;92.90
43346;DHT22;28937;51.160;4.146;2022-08-21T08:29:44;22.10;92.90
43346;DHT22;28937;51.160;4.146;2022-08-21T08:32:10;22.10;93.00
43346;DHT22;28937;51.160;4.146;2022-08-21T08:34:36;22.10;93.00
43346;DHT22;28937;51.160;4.146;2022-08-21T08:37:03;22.20;93.20
43346;DHT22;28937;51.160;4.146;2022-08-21T08:39:29;22.20;93.00
43346;DHT22;28937;51.160;4.146;2022-08-21T08:42:08;22.30;92.90
43346;DHT22;28937;51.160;4.146;2022-08-21T08:44:36;22.30;93.00
43346;DHT22;28937;51.160;4.146;2022-08-21T08:47:01;22.30;92.80
43346;DHT22;28937;51.160;4.146;2022-08-21T08:49:37;22.40;92.60
43346;DHT22;28937;51.160;4.146;2022-08-21T08:52:18;22.40;92.50
43346;DHT22;28937;51.160;4.146;2022-08-21T08:54:52;22.50;92.40
43346;DHT22;28937;51.160;4.146;2022-08-21T08:57:22;22.50;92.30
43346;DHT22;28937;51.160;4.146;2022-08-21T08:59:53;22.60;92.30
43346;DHT22;28937;51.160;4.146;2022-08-21T09:02:21;22.60;92.30
43346;DHT22;28937;51.160;4.146;2022-08-21T09:04:49;22.60;92.10
43346;DHT22;28937;51.160;4.146;2022-08-21T09:13:12;22.80;91.70
43346;DHT22;28937;51.160;4.146;2022-08-21T09:16:10;22.80;91.70
43346;DHT22;28937;51.160;4.146;2022-08-21T09:19:10;22.90;91.60
43346;DHT22;28937;51.160;4.146;2022-08-21T09:21:53;22.90;91.40
43346;DHT22;28937;51.160;4.146;2022-08-21T09:27:18;22.90;91.30
43346;DHT22;28937;51.160;4.146;2022-08-21T09:29:47;22.90;91.40
43346;DHT22;28937;51.160;4.146;2022-08-21T09:32:22;22.90;91.20
43346;DHT22;28937;51.160;4.146;2022-08-21T09:37:47;23.00;91.00
43346;DHT22;28937;51.160;4.146;2022-08-21T09:40:39;23.00;90.90
43346;DHT22;28937;51.160;4.146;2022-08-21T09:45:43;23.00;90.80
43346;DHT22;28937;51.160;4.146;2022-08-21T09:48:24;23.10;90.70
43346;DHT22;28937;51.160;4.146;2022-08-21T09:50:51;23.10;90.70
43346;DHT22;28937;51.160;4.146;2022-08-21T09:53:27;23.10;90.50
43346;DHT22;28937;51.160;4.146;2022-08-21T09:56:05;23.10;90.50
43346;DHT22;28937;51.160;4.146;2022-08-21T09:58:59;23.10;90.50
43346;DHT22;28937;51.160;4.146;2022-08-21T10:01:25;23.10;90.40
43346;DHT22;28937;51.160;4.146;2022-08-21T10:04:11;23.20;90.40
43346;DHT22;28937;51.160;4.146;2022-08-21T10:06:37;23.20;90.40
43346;DHT22;28937;51.160;4.146;2022-08-21T10:11:33;23.20;90.40
43346;DHT22;28937;51.160;4.146;2022-08-21T10:14:08;23.20;90.50
43346;DHT22;28937;51.160;4.146;2022-08-21T10:16:49;23.20;90.50
43346;DHT22;28937;51.160;4.146;2022-08-21T10:22:34;23.30;90.50
43346;DHT22;28937;51.160;4.146;2022-08-21T10:28:00;23.30;90.20
43346;DHT22;28937;51.160;4.146;2022-08-21T10:30:50;23.30;90.20
43346;DHT22;28937;51.160;4.146;2022-08-21T10:33:40;23.30;90.20
43346;DHT22;28937;51.160;4.146;2022-08-21T10:36:14;23.40;90.10
43346;DHT22;28937;51.160;4.146;2022-08-21T10:38:55;23.30;90.10
43346;DHT22;28937;51.160;4.146;2022-08-21T10:50:08;23.40;90.70
43346;DHT22;28937;51.160;4.146;2022-08-21T10:52:57;23.40;91.20
43346;DHT22;28937;51.160;4.146;2022-08-21T10:55:39;23.50;91.80
43346;DHT22;28937;51.160;4.146;2022-08-21T10:58:12;23.60;92.00
43346;DHT22;28937;51.160;4.146;2022-08-21T11:00:41;23.60;91.90
43346;DHT22;28937;51.160;4.146;2022-08-21T11:03:25;23.60;92.70
43346;DHT22;28937;51.160;4.146;2022-08-21T11:06:10;23.60;93.60
43346;DHT22;28937;51.160;4.146;2022-08-21T11:08:58;23.60;94.00
43346;DHT22;28937;51.160;4.146;2022-08-21T11:11:41;23.70;94.30
43346;DHT22;28937;51.160;4.146;2022-08-21T11:14:38;23.80;94.30
43346;DHT22;28937;51.160;4.146;2022-08-21T11:17:10;23.70;92.90
43346;DHT22;28937;51.160;4.146;2022-08-21T11:19:47;23.80;92.20
43346;DHT22;28937;51.160;4.146;2022-08-21T11:22:26;23.80;92.40
43346;DHT22;28937;51.160;4.146;2022-08-21T11:27:58;23.90;92.00
43346;DHT22;28937;51.160;4.146;2022-08-21T11:30:42;23.90;91.70
43346;DHT22;28937;51.160;4.146;2022-08-21T11:36:30;23.90;91.40
43346;DHT22;28937;51.160;4.146;2022-08-21T11:41:30;24.00;90.70
43346;DHT22;28937;51.160;4.146;2022-08-21T11:46:38;24.00;90.30
43346;DHT22;28937;51.160;4.146;2022-08-21T11:49:16;24.00;90.40
43346;DHT22;28937;51.160;4.146;2022-08-21T11:56:44;24.00;90.30
43346;DHT22;28937;51.160;4.146;2022-08-21T11:59:19;24.10;90.30
43346;DHT22;28937;51.160;4.146;2022-08-21T12:01:46;24.10;90.10
43346;DHT22;28937;51.160;4.146;2022-08-21T12:04:29;24.10;89.60
43346;DHT22;28937;51.160;4.146;2022-08-21T12:06:56;24.10;89.70
43346;DHT22;28937;51.160;4.146;2022-08-21T12:09:36;24.10;88.40
43346;DHT22;28937;51.160;4.146;2022-08-21T12:12:10;24.10;89.40
43346;DHT22;28937;51.160;4.146;2022-08-21T12:14:45;24.10;88.30
43346;DHT22;28937;51.160;4.146;2022-08-21T12:17:23;24.10;88.80
43346;DHT22;28937;51.160;4.146;2022-08-21T12:20:01;24.10;89.00
43346;DHT22;28937;51.160;4.146;2022-08-21T12:23:01;24.20;89.30
43346;DHT22;28937;51.160;4.146;2022-08-21T12:25:40;24.20;89.20
43346;DHT22;28937;51.160;4.146;2022-08-21T12:28:11;24.20;88.80
43346;DHT22;28937;51.160;4.146;2022-08-21T12:30:42;24.20;88.80
43346;DHT22;28937;51.160;4.146;2022-08-21T12:35:44;24.30;88.40
43346;DHT22;28937;51.160;4.146;2022-08-21T12:38:27;24.30;88.00
43346;DHT22;28937;51.160;4.146;2022-08-21T12:40:59;24.30;87.50
43346;DHT22;28937;51.160;4.146;2022-08-21T12:43:37;24.40;88.00
43346;DHT22;28937;51.160;4.146;2022-08-21T12:46:04;24.40;88.00
43346;DHT22;28937;51.160;4.146;2022-08-21T12:48:41;24.40;87.90
43346;DHT22;28937;51.160;4.146;2022-08-21T12:51:15;24.40;88.20
43346;DHT22;28937;51.160;4.146;2022-08-21T12:53:48;24.50;87.60
43346;DHT22;28937;51.160;4.146;2022-08-21T12:56:18;24.50;87.70
43346;DHT22;28937;51.160;4.146;2022-08-21T12:58:47;24.50;86.40
43346;DHT22;28937;51.160;4.146;2022-08-21T13:01:27;24.50;87.10
43346;DHT22;28937;51.160;4.146;2022-08-21T13:03:55;24.60;87.60
43346;DHT22;28937;51.160;4.146;2022-08-21T13:06:23;24.50;87.30
43346;DHT22;28937;51.160;4.146;2022-08-21T13:08:57;24.60;87.30
43346;DHT22;28937;51.160;4.146;2022-08-21T13:11:28;24.50;87.10
43346;DHT22;28937;51.160;4.146;2022-08-21T13:13:54;24.60;87.40
43346;DHT22;28937;51.160;4.146;2022-08-21T13:16:26;24.60;87.10
43346;DHT22;28937;51.160;4.146;2022-08-21T13:19:05;24.60;86.30
43346;DHT22;28937;51.160;4.146;2022-08-21T13:21:34;24.60;86.00
43346;DHT22;28937;51.160;4.146;2022-08-21T13:24:15;24.60;85.80
43346;DHT22;28937;51.160;4.146;2022-08-21T13:26:41;24.60;85.20
43346;DHT22;28937;51.160;4.146;2022-08-21T13:29:12;24.60;85.40
43346;DHT22;28937;51.160;4.146;2022-08-21T13:31:39;24.60;85.20
43346;DHT22;28937;51.160;4.146;2022-08-21T13:34:09;24.60;85.00
43346;DHT22;28937;51.160;4.146;2022-08-21T13:36:37;24.60;84.70
43346;DHT22;28937;51.160;4.146;2022-08-21T13:39:07;24.60;84.80
43346;DHT22;28937;51.160;4.146;2022-08-21T13:41:35;24.60;84.30
43346;DHT22;28937;51.160;4.146;2022-08-21T13:44:05;24.70;83.80
43346;DHT22;28937;51.160;4.146;2022-08-21T13:46:34;24.60;83.80
43346;DHT22;28937;51.160;4.146;2022-08-21T13:49:02;24.60;83.60
43346;DHT22;28937;51.160;4.146;2022-08-21T13:51:30;24.70;83.80
43346;DHT22;28937;51.160;4.146;2022-08-21T13:53:58;24.70;83.80
43346;DHT22;28937;51.160;4.146;2022-08-21T13:56:25;24.70;83.80
43346;DHT22;28937;51.160;4.146;2022-08-21T13:58:52;24.70;83.60
43346;DHT22;28937;51.160;4.146;2022-08-21T14:03:50;24.70;83.20
43346;DHT22;28937;51.160;4.146;2022-08-21T14:06:37;24.70;83.60
43346;DHT22;28937;51.160;4.146;2022-08-21T14:09:28;24.80;83.20
43346;DHT22;28937;51.160;4.146;2022-08-21T14:11:56;24.80;83.50
43346;DHT22;28937;51.160;4.146;2022-08-21T14:14:33;24.80;83.20
43346;DHT22;28937;51.160;4.146;2022-08-21T14:17:11;24.80;81.20
43346;DHT22;28937;51.160;4.146;2022-08-21T14:19:46;24.90;79.50
43346;DHT22;28937;51.160;4.146;2022-08-21T14:22:51;24.90;81.10
43346;DHT22;28937;51.160;4.146;2022-08-21T14:27:55;24.90;80.40
43346;DHT22;28937;51.160;4.146;2022-08-21T14:30:31;24.90;79.40
43346;DHT22;28937;51.160;4.146;2022-08-21T14:32:59;24.90;81.00
43346;DHT22;28937;51.160;4.146;2022-08-21T14:35:25;24.90;80.70
43346;DHT22;28937;51.160;4.146;2022-08-21T14:37:51;24.90;79.80
43346;DHT22;28937;51.160;4.146;2022-08-21T14:40:18;25.00;79.20
43346;DHT22;28937;51.160;4.146;2022-08-21T14:42:44;25.00;79.20
43346;DHT22;28937;51.160;4.146;2022-08-21T14:45:16;25.00;80.10
43346;DHT22;28937;51.160;4.146;2022-08-21T14:47:42;24.90;81.10
43346;DHT22;28937;51.160;4.146;2022-08-21T14:50:09;24.90;81.40
43346;DHT22;28937;51.160;4.146;2022-08-21T14:52:35;25.00;80.70
43346;DHT22;28937;51.160;4.146;2022-08-21T14:55:02;24.90;81.10
43346;DHT22;28937;51.160;4.146;2022-08-21T14:57:30;24.90;81.80
43346;DHT22;28937;51.160;4.146;2022-08-21T14:59:56;25.00;81.50
43346;DHT22;28937;51.160;4.146;2022-08-21T15:02:21;24.90;81.50
43346;DHT22;28937;51.160;4.146;2022-08-21T15:04:47;24.90;81.70
43346;DHT22;28937;51.160;4.146;2022-08-21T15:07:13;24.90;81.80
43346;DHT22;28937;51.160;4.146;2022-08-21T15:09:38;24.90;81.90
43346;DHT22;28937;51.160;4.146;2022-08-21T15:12:05;25.00;81.50
43346;DHT22;28937;51.160;4.146;2022-08-21T15:14:33;25.00;80.50
43346;DHT22;28937;51.160;4.146;2022-08-21T15:16:59;25.00;80.30
43346;DHT22;28937;51.160;4.146;2022-08-21T15:19:25;25.00;80.70
43346;DHT22;28937;51.160;4.146;2022-08-21T15:21:51;25.00;80.70
43346;DHT22;28937;51.160;4.146;2022-08-21T15:24:17;25.00;80.60
43346;DHT22;28937;51.160;4.146;2022-08-21T15:26:43;25.00;80.60
43346;DHT22;28937;51.160;4.146;2022-08-21T15:29:08;25.00;80.80
43346;DHT22;28937;51.160;4.146;2022-08-21T15:31:35;25.00;81.00
43346;DHT22;28937;51.160;4.146;2022-08-21T15:34:01;25.00;81.30
43346;DHT22;28937;51.160;4.146;2022-08-21T15:36:27;25.10;80.60
43346;DHT22;28937;51.160;4.146;2022-08-21T15:38:52;25.00;80.80
43346;DHT22;28937;51.160;4.146;2022-08-21T15:41:18;25.00;80.80
43346;DHT22;28937;51.160;4.146;2022-08-21T15:43:49;25.10;81.10
43346;DHT22;28937;51.160;4.146;2022-08-21T15:46:16;25.10;81.30
43346;DHT22;28937;51.160;4.146;2022-08-21T15:48:43;25.10;81.20
43346;DHT22;28937;51.160;4.146;2022-08-21T15:51:10;25.10;80.70
43346;DHT22;28937;51.160;4.146;2022-08-21T15:53:36;25.10;79.80
43346;DHT22;28937;51.160;4.146;2022-08-21T15:56:05;25.10;79.40
43346;DHT22;28937;51.160;4.146;2022-08-21T15:58:31;25.10;79.30
43346;DHT22;28937;51.160;4.146;2022-08-21T16:01:00;25.20;80.20
43346;DHT22;28937;51.160;4.146;2022-08-21T16:03:26;25.10;80.00
43346;DHT22;28937;51.160;4.146;2022-08-21T16:05:53;25.20;79.20
43346;DHT22;28937;51.160;4.146;2022-08-21T16:08:21;25.10;79.00
43346;DHT22;28937;51.160;4.146;2022-08-21T16:10:46;25.20;79.20
43346;DHT22;28937;51.160;4.146;2022-08-21T16:13:23;25.20;79.20
43346;DHT22;28937;51.160;4.146;2022-08-21T16:15:50;25.20;78.70
43346;DHT22;28937;51.160;4.146;2022-08-21T16:18:17;25.10;78.60
43346;DHT22;28937;51.160;4.146;2022-08-21T16:20:43;25.20;78.00
43346;DHT22;28937;51.160;4.146;2022-08-21T16:23:08;25.10;77.70
43346;DHT22;28937;51.160;4.146;2022-08-21T16:25:37;25.10;78.20
43346;DHT22;28937;51.160;4.146;2022-08-21T16:28:06;25.10;77.80
43346;DHT22;28937;51.160;4.146;2022-08-21T16:30:32;25.10;78.60
43346;DHT22;28937;51.160;4.146;2022-08-21T16:33:01;25.10;78.80
43346;DHT22;28937;51.160;4.146;2022-08-21T16:35:26;25.10;79.70
43346;DHT22;28937;51.160;4.146;2022-08-21T16:37:52;25.10;79.80